sensor_id;sensor_type;location;lat;lon;timestamp;pressure;altitude;pressure_sealevel;temperature;humidity
66164;BME280;52962;51.088;3.096;2023-04-16T00:00:09;102166.97;;;8.79;nan
66164;BME280;52962;51.088;3.096;2023-04-16T00:02:38;102165.31;;;8.81;nan
66164;BME280;52962;51.088;3.096;2023-04-16T00:05:07;102166.66;;;8.73;nan
66164;BME280;52962;51.088;3.096;2023-04-16T00:07:35;102165.69;;;8.71;nan
66164;BME280;52962;51.088;3.096;2023-04-16T00:10:04;102159.47;;;8.69;nan
66164;BME280;52962;51.088;3.096;2023-04-16T00:12:33;102164.41;;;8.63;nan
66164;BME280;52962;51.088;3.096;2023-04-16T00:15:02;102162.63;;;8.62;nan
66164;BME280;52962;51.088;3.096;2023-04-16T00:17:30;102158.88;;;8.57;nan
66164;BME280;52962;51.088;3.096;2023-04-16T00:19:58;102155.94;;;8.50;nan
66164;BME280;52962;51.088;3.096;2023-04-16T00:22:27;102151.28;;;8.45;nan
66164;BME280;52962;51.088;3.096;2023-04-16T00:24:55;102163.34;;;8.41;nan
66164;BME280;52962;51.088;3.096;2023-04-16T00:27:23;102155.25;;;8.37;nan
66164;BME280;52962;51.088;3.096;2023-04-16T00:29:53;102163.03;;;8.35;nan
66164;BME280;52962;51.088;3.096;2023-04-16T00:32:22;102163.16;;;8.20;nan
66164;BME280;52962;51.088;3.096;2023-04-16T00:34:50;102159.44;;;8.33;nan
66164;BME280;52962;51.088;3.096;2023-04-16T00:37:18;102158.38;;;8.30;nan
66164;BME280;52962;51.088;3.096;2023-04-16T00:39:46;102163.41;;;8.25;nan
66164;BME280;52962;51.088;3.096;2023-04-16T00:42:14;102169.41;;;8.23;nan
66164;BME280;52962;51.088;3.096;2023-04-16T00:44:42;102163.41;;;8.25;nan
66164;BME280;52962;51.088;3.096;2023-04-16T00:47:12;102163.47;;;8.27;nan
66164;BME280;52962;51.088;3.096;2023-04-16T00:49:40;102169.63;;;8.27;nan
66164;BME280;52962;51.088;3.096;2023-04-16T00:52:10;102166.84;;;8.24;nan
66164;BME280;52962;51.088;3.096;2023-04-16T00:54:39;102165.63;;;8.17;nan
66164;BME280;52962;51.088;3.096;2023-04-16T00:57:09;102160.16;;;8.13;nan
66164;BME280;52962;51.088;3.096;2023-04-16T00:59:37;102160.16;;;8.13;nan
66164;BME280;52962;51.088;3.096;2023-04-16T01:02:05;102166.06;;;8.09;nan
66164;BME280;52962;51.088;3.096;2023-04-16T01:04:35;102170.34;;;8.07;nan
66164;BME280;52962;51.088;3.096;2023-04-16T01:07:03;102171.81;;;8.02;nan
66164;BME280;52962;51.088;3.096;2023-04-16T01:09:31;102172.56;;;7.99;nan
66164;BME280;52962;51.088;3.096;2023-04-16T01:12:02;102165.75;;;8.03;nan
66164;BME280;52962;51.088;3.096;2023-04-16T01:14:30;102171.66;;;7.99;nan
66164;BME280;52962;51.088;3.096;2023-04-16T01:17:02;102164.53;;;7.96;nan
66164;BME280;52962;51.088;3.096;2023-04-16T01:19:30;102163.78;;;7.99;nan
66164;BME280;52962;51.088;3.096;2023-04-16T01:21:59;102168.38;;;8.03;nan
66164;BME280;52962;51.088;3.096;2023-04-16T01:24:27;102173.94;;;8.09;nan
66164;BME280;52962;51.088;3.096;2023-04-16T01:26:56;102168.78;;;8.10;nan
66164;BME280;52962;51.088;3.096;2023-04-16T01:29:24;102172.28;;;8.11;nan
66164;BME280;52962;51.088;3.096;2023-04-16T01:31:55;102158.34;;;8.12;nan
66164;BME280;52962;51.088;3.096;2023-04-16T01:34:26;102176.91;;;7.99;nan
66164;BME280;52962;51.088;3.096;2023-04-16T01:36:54;102178.72;;;8.00;nan
66164;BME280;52962;51.088;3.096;2023-04-16T01:39:24;102181.00;;;7.94;nan
66164;BME280;52962;51.088;3.096;2023-04-16T01:41:52;102176.28;;;7.86;nan
66164;BME280;52962;51.088;3.096;2023-04-16T01:44:20;102176.44;;;7.90;nan
66164;BME280;52962;51.088;3.096;2023-04-16T01:46:48;102182.81;;;7.95;nan
66164;BME280;52962;51.088;3.096;2023-04-16T01:49:17;102181.09;;;7.95;nan
66164;BME280;52962;51.088;3.096;2023-04-16T01:51:45;102180.34;;;7.98;nan
66164;BME280;52962;51.088;3.096;2023-04-16T01:54:13;102182.31;;;8.02;nan
66164;BME280;52962;51.088;3.096;2023-04-16T01:56:42;102186.66;;;8.01;nan
66164;BME280;52962;51.088;3.096;2023-04-16T01:59:10;102186.06;;;8.07;nan
66164;BME280;52962;51.088;3.096;2023-04-16T02:01:40;102178.00;;;8.20;nan
66164;BME280;52962;51.088;3.096;2023-04-16T02:04:08;102184.09;;;8.19;nan
66164;BME280;52962;51.088;3.096;2023-04-16T02:06:37;102186.72;;;8.19;nan
66164;BME280;52962;51.088;3.096;2023-04-16T02:09:05;102173.59;;;8.19;nan
66164;BME280;52962;51.088;3.096;2023-04-16T02:11:35;102182.28;;;8.18;nan
66164;BME280;52962;51.088;3.096;2023-04-16T02:14:04;102175.91;;;8.13;nan
66164;BME280;52962;51.088;3.096;2023-04-16T02:16:35;102174.34;;;8.16;nan
66164;BME280;52962;51.088;3.096;2023-04-16T02:19:10;102178.84;;;8.19;nan
66164;BME280;52962;51.088;3.096;2023-04-16T02:21:40;102180.59;;;8.02;nan
66164;BME280;52962;51.088;3.096;2023-04-16T02:24:08;102174.09;;;8.12;nan
66164;BME280;52962;51.088;3.096;2023-04-16T02:26:36;102170.50;;;8.10;nan
66164;BME280;52962;51.088;3.096;2023-04-16T02:29:12;102175.25;;;8.01;nan
66164;BME280;52962;51.088;3.096;2023-04-16T02:31:47;102178.13;;;8.05;nan
66164;BME280;52962;51.088;3.096;2023-04-16T02:34:15;102172.88;;;8.05;nan
66164;BME280;52962;51.088;3.096;2023-04-16T02:36:43;102173.63;;;8.03;nan
66164;BME280;52962;51.088;3.096;2023-04-16T02:39:12;102168.22;;;8.00;nan
66164;BME280;52962;51.088;3.096;2023-04-16T02:41:40;102174.09;;;8.12;nan
66164;BME280;52962;51.088;3.096;2023-04-16T02:44:08;102175.91;;;8.13;nan
66164;BME280;52962;51.088;3.096;2023-04-16T02:46:37;102177.53;;;8.11;nan
66164;BME280;52962;51.088;3.096;2023-04-16T02:49:06;102176.66;;;8.10;nan
66164;BME280;52962;51.088;3.096;2023-04-16T02:51:34;102177.38;;;8.08;nan
66164;BME280;52962;51.088;3.096;2023-04-16T02:54:02;102177.50;;;7.93;nan
66164;BME280;52962;51.088;3.096;2023-04-16T02:56:31;102178.47;;;7.95;nan
66164;BME280;52962;51.088;3.096;2023-04-16T02:58:59;102178.53;;;8.13;nan
66164;BME280;52962;51.088;3.096;2023-04-16T03:01:28;102185.03;;;8.03;nan
66164;BME280;52962;51.088;3.096;2023-04-16T03:03:58;102177.84;;;8.17;nan
66164;BME280;52962;51.088;3.096;2023-04-16T03:06:26;102177.19;;;8.21;nan
66164;BME280;52962;51.088;3.096;2023-04-16T03:08:54;102184.72;;;8.31;nan
66164;BME280;52962;51.088;3.096;2023-04-16T03:11:22;102184.63;;;8.30;nan
66164;BME280;52962;51.088;3.096;2023-04-16T03:13:50;102186.94;;;8.24;nan
66164;BME280;52962;51.088;3.096;2023-04-16T03:16:19;102184.41;;;8.25;nan
66164;BME280;52962;51.088;3.096;2023-04-16T03:18:47;102189.69;;;8.09;nan
66164;BME280;52962;51.088;3.096;2023-04-16T03:21:17;102191.47;;;8.10;nan
66164;BME280;52962;51.088;3.096;2023-04-16T03:23:45;102183.69;;;8.11;nan
66164;BME280;52962;51.088;3.096;2023-04-16T03:26:13;102186.25;;;8.10;nan
66164;BME280;52962;51.088;3.096;2023-04-16T03:28:41;102189.59;;;8.07;nan
66164;BME280;52962;51.088;3.096;2023-04-16T03:31:10;102186.34;;;7.95;nan
66164;BME280;52962;51.088;3.096;2023-04-16T03:33:39;102195.28;;;7.99;nan
66164;BME280;52962;51.088;3.096;2023-04-16T03:36:07;102192.59;;;8.31;nan
66164;BME280;52962;51.088;3.096;2023-04-16T03:38:38;102189.53;;;8.06;nan
66164;BME280;52962;51.088;3.096;2023-04-16T03:41:06;102189.53;;;8.06;nan
66164;BME280;52962;51.088;3.096;2023-04-16T03:43:35;102190.53;;;7.92;nan
66164;BME280;52962;51.088;3.096;2023-04-16T03:46:04;102185.75;;;8.01;nan
66164;BME280;52962;51.088;3.096;2023-04-16T03:48:32;102183.06;;;7.99;nan
66164;BME280;52962;51.088;3.096;2023-04-16T03:51:00;102181.16;;;8.13;nan
66164;BME280;52962;51.088;3.096;2023-04-16T03:53:28;102175.13;;;8.32;nan
66164;BME280;52962;51.088;3.096;2023-04-16T03:55:58;102178.59;;;8.32;nan
66164;BME280;52962;51.088;3.096;2023-04-16T03:58:28;102176.69;;;8.28;nan
66164;BME280;52962;51.088;3.096;2023-04-16T04:00:57;102186.91;;;7.90;nan
66164;BME280;52962;51.088;3.096;2023-04-16T04:03:25;102184.47;;;7.76;nan
66164;BME280;52962;51.088;3.096;2023-04-16T04:05:54;102181.84;;;7.76;nan
66164;BME280;52962;51.088;3.096;2023-04-16T04:08:28;102193.56;;;7.83;nan
66164;BME280;52962;51.088;3.096;2023-04-16T04:10:57;102192.50;;;7.79;nan
66164;BME280;52962;51.088;3.096;2023-04-16T04:13:26;102193.16;;;7.75;nan
66164;BME280;52962;51.088;3.096;2023-04-16T04:15:54;102191.28;;;7.73;nan
66164;BME280;52962;51.088;3.096;2023-04-16T04:18:22;102188.41;;;7.68;nan
66164;BME280;52962;51.088;3.096;2023-04-16T04:20:51;102185.63;;;7.65;nan
66164;BME280;52962;51.088;3.096;2023-04-16T04:23:23;102187.09;;;7.60;nan
66164;BME280;52962;51.088;3.096;2023-04-16T04:25:51;102186.75;;;7.54;nan
66164;BME280;52962;51.088;3.096;2023-04-16T04:28:20;102179.56;;;7.50;nan
66164;BME280;52962;51.088;3.096;2023-04-16T04:30:49;102185.75;;;7.36;nan
66164;BME280;52962;51.088;3.096;2023-04-16T04:33:17;102186.41;;;7.32;nan
66164;BME280;52962;51.088;3.096;2023-04-16T04:35:46;102182.91;;;7.31;nan
66164;BME280;52962;51.088;3.096;2023-04-16T04:38:14;102187.00;;;7.26;nan
66164;BME280;52962;51.088;3.096;2023-04-16T04:40:47;102188.56;;;7.22;nan
66164;BME280;52962;51.088;3.096;2023-04-16T04:43:17;102192.56;;;7.16;nan
66164;BME280;52962;51.088;3.096;2023-04-16T04:45:47;102189.84;;;7.14;nan
66164;BME280;52962;51.088;3.096;2023-04-16T04:48:16;102188.41;;;7.19;nan
66164;BME280;52962;51.088;3.096;2023-04-16T04:50:45;102193.72;;;7.21;nan
66164;BME280;52962;51.088;3.096;2023-04-16T04:53:13;102195.88;;;6.97;nan
66164;BME280;52962;51.088;3.096;2023-04-16T04:55:42;102194.94;;;7.11;nan
66164;BME280;52962;51.088;3.096;2023-04-16T04:58:10;102196.91;;;7.15;nan
66164;BME280;52962;51.088;3.096;2023-04-16T05:00:40;102195.59;;;7.24;nan
66164;BME280;52962;51.088;3.096;2023-04-16T05:03:11;102199.78;;;7.20;nan
66164;BME280;52962;51.088;3.096;2023-04-16T05:05:39;102198.88;;;7.19;nan
66164;BME280;52962;51.088;3.096;2023-04-16T05:08:07;102201.31;;;7.33;nan
66164;BME280;52962;51.088;3.096;2023-04-16T05:10:36;102197.72;;;7.31;nan
66164;BME280;52962;51.088;3.096;2023-04-16T05:13:04;102205.50;;;7.29;nan
66164;BME280;52962;51.088;3.096;2023-04-16T05:15:32;102202.13;;;7.32;nan
66164;BME280;52962;51.088;3.096;2023-04-16T05:18:00;102209.00;;;7.30;nan
66164;BME280;52962;51.088;3.096;2023-04-16T05:20:29;102206.72;;;7.36;nan
66164;BME280;52962;51.088;3.096;2023-04-16T05:22:57;102203.63;;;7.43;nan
66164;BME280;52962;51.088;3.096;2023-04-16T05:25:25;102211.50;;;7.59;nan
66164;BME280;52962;51.088;3.096;2023-04-16T05:27:53;102211.03;;;7.66;nan
66164;BME280;52962;51.088;3.096;2023-04-16T05:30:21;102214.47;;;7.65;nan
66164;BME280;52962;51.088;3.096;2023-04-16T05:32:49;102217.41;;;7.71;nan
66164;BME280;52962;51.088;3.096;2023-04-16T05:35:17;102217.75;;;7.77;nan
66164;BME280;52962;51.088;3.096;2023-04-16T05:37:47;102215.22;;;7.79;nan
66164;BME280;52962;51.088;3.096;2023-04-16T05:40:15;102225.28;;;7.87;nan
66164;BME280;52962;51.088;3.096;2023-04-16T05:42:43;102218.72;;;7.96;nan
66164;BME280;52962;51.088;3.096;2023-04-16T05:45:11;102219.53;;;7.95;nan
66164;BME280;52962;51.088;3.096;2023-04-16T05:47:39;102219.03;;;8.02;nan
66164;BME280;52962;51.088;3.096;2023-04-16T05:50:08;102229.03;;;8.09;nan
66164;BME280;52962;51.088;3.096;2023-04-16T05:52:36;102227.56;;;8.14;nan
66164;BME280;52962;51.088;3.096;2023-04-16T05:55:05;102231.72;;;8.27;nan
66164;BME280;52962;51.088;3.096;2023-04-16T05:57:34;102234.75;;;8.34;nan
66164;BME280;52962;51.088;3.096;2023-04-16T06:00:02;102235.38;;;8.46;nan
66164;BME280;52962;51.088;3.096;2023-04-16T06:02:37;102230.44;;;8.52;nan
66164;BME280;52962;51.088;3.096;2023-04-16T06:05:06;102238.22;;;8.51;nan
66164;BME280;52962;51.088;3.096;2023-04-16T06:07:35;102226.16;;;8.55;nan
66164;BME280;52962;51.088;3.096;2023-04-16T06:10:05;102232.69;;;8.63;nan
66164;BME280;52962;51.088;3.096;2023-04-16T06:12:33;102234.97;;;8.73;nan
66164;BME280;52962;51.088;3.096;2023-04-16T06:15:01;102241.28;;;8.76;nan
66164;BME280;52962;51.088;3.096;2023-04-16T06:17:29;102238.81;;;8.97;nan
66164;BME280;52962;51.088;3.096;2023-04-16T06:19:57;102232.28;;;8.89;nan
66164;BME280;52962;51.088;3.096;2023-04-16T06:22:25;102242.47;;;9.18;nan
66164;BME280;52962;51.088;3.096;2023-04-16T06:24:54;102237.59;;;9.08;nan
66164;BME280;52962;51.088;3.096;2023-04-16T06:27:23;102240.91;;;9.04;nan
66164;BME280;52962;51.088;3.096;2023-04-16T06:29:52;102242.47;;;9.18;nan
66164;BME280;52962;51.088;3.096;2023-04-16T06:32:20;102239.59;;;9.32;nan
66164;BME280;52962;51.088;3.096;2023-04-16T06:34:49;102244.72;;;9.48;nan
66164;BME280;52962;51.088;3.096;2023-04-16T06:37:17;102250.50;;;9.59;nan
66164;BME280;52962;51.088;3.096;2023-04-16T06:39:45;102245.59;;;9.66;nan
66164;BME280;52962;51.088;3.096;2023-04-16T06:42:13;102244.44;;;9.79;nan
66164;BME280;52962;51.088;3.096;2023-04-16T06:44:43;102245.41;;;9.81;nan
66164;BME280;52962;51.088;3.096;2023-04-16T06:47:11;102244.22;;;9.94;nan
66164;BME280;52962;51.088;3.096;2023-04-16T06:49:39;102239.72;;;10.10;nan
66164;BME280;52962;51.088;3.096;2023-04-16T06:52:07;102241.72;;;10.35;nan
66164;BME280;52962;51.088;3.096;2023-04-16T06:54:35;102244.16;;;10.11;nan
66164;BME280;52962;51.088;3.096;2023-04-16T06:57:03;102253.22;;;10.18;nan
66164;BME280;52962;51.088;3.096;2023-04-16T06:59:32;102252.88;;;10.30;nan
66164;BME280;52962;51.088;3.096;2023-04-16T07:02:01;102254.28;;;10.42;nan
66164;BME280;52962;51.088;3.096;2023-04-16T07:04:29;102251.03;;;10.69;nan
66164;BME280;52962;51.088;3.096;2023-04-16T07:06:57;102257.91;;;10.86;nan
66164;BME280;52962;51.088;3.096;2023-04-16T07:09:25;102263.06;;;10.83;nan
66164;BME280;52962;51.088;3.096;2023-04-16T07:11:53;102254.06;;;10.78;nan
66164;BME280;52962;51.088;3.096;2023-04-16T07:14:21;102264.53;;;10.76;nan
66164;BME280;52962;51.088;3.096;2023-04-16T07:16:49;102268.78;;;10.73;nan
66164;BME280;52962;51.088;3.096;2023-04-16T07:19:19;102264.78;;;10.62;nan
66164;BME280;52962;51.088;3.096;2023-04-16T07:21:47;102271.19;;;10.47;nan
66164;BME280;52962;51.088;3.096;2023-04-16T07:24:16;102266.84;;;10.90;nan
66164;BME280;52962;51.088;3.096;2023-04-16T07:26:44;102264.72;;;10.81;nan
66164;BME280;52962;51.088;3.096;2023-04-16T07:29:12;102272.38;;;10.75;nan
66164;BME280;52962;51.088;3.096;2023-04-16T07:31:40;102277.38;;;10.69;nan
66164;BME280;52962;51.088;3.096;2023-04-16T07:34:08;102279.63;;;10.60;nan
66164;BME280;52962;51.088;3.096;2023-04-16T07:36:37;102281.69;;;10.67;nan
66164;BME280;52962;51.088;3.096;2023-04-16T07:39:05;102277.75;;;10.57;nan
66164;BME280;52962;51.088;3.096;2023-04-16T07:41:34;102277.13;;;10.63;nan
66164;BME280;52962;51.088;3.096;2023-04-16T07:44:03;102283.06;;;10.78;nan
66164;BME280;52962;51.088;3.096;2023-04-16T07:46:31;102292.69;;;10.98;nan
66164;BME280;52962;51.088;3.096;2023-04-16T07:49:12;102296.16;;;11.18;nan
66164;BME280;52962;51.088;3.096;2023-04-16T07:51:41;102294.28;;;11.16;nan
66164;BME280;52962;51.088;3.096;2023-04-16T07:54:09;102296.00;;;11.36;nan
66164;BME280;52962;51.088;3.096;2023-04-16T07:56:37;102290.41;;;11.51;nan
66164;BME280;52962;51.088;3.096;2023-04-16T07:59:05;102303.53;;;11.49;nan
66164;BME280;52962;51.088;3.096;2023-04-16T08:01:48;102302.09;;;11.57;nan
66164;BME280;52962;51.088;3.096;2023-04-16T08:04:16;102304.38;;;11.48;nan
66164;BME280;52962;51.088;3.096;2023-04-16T08:06:52;102304.91;;;11.83;nan
66164;BME280;52962;51.088;3.096;2023-04-16T08:09:22;102304.72;;;12.24;nan
66164;BME280;52962;51.088;3.096;2023-04-16T08:11:50;102301.16;;;12.48;nan
66164;BME280;52962;51.088;3.096;2023-04-16T08:14:19;102300.25;;;12.72;nan
66164;BME280;52962;51.088;3.096;2023-04-16T08:16:47;102299.88;;;12.62;nan
66164;BME280;52962;51.088;3.096;2023-04-16T08:19:15;102318.78;;;12.49;nan
66164;BME280;52962;51.088;3.096;2023-04-16T08:21:43;102303.56;;;12.67;nan
66164;BME280;52962;51.088;3.096;2023-04-16T08:24:13;102311.63;;;12.70;nan
66164;BME280;52962;51.088;3.096;2023-04-16T08:26:41;102314.16;;;12.67;nan
66164;BME280;52962;51.088;3.096;2023-04-16T08:29:09;102323.22;;;12.50;nan
66164;BME280;52962;51.088;3.096;2023-04-16T08:31:38;102315.28;;;12.24;nan
66164;BME280;52962;51.088;3.096;2023-04-16T08:34:06;102319.84;;;12.54;nan
66164;BME280;52962;51.088;3.096;2023-04-16T08:36:34;102314.78;;;12.60;nan
66164;BME280;52962;51.088;3.096;2023-04-16T08:39:02;102321.00;;;12.62;nan
66164;BME280;52962;51.088;3.096;2023-04-16T08:41:33;102327.16;;;12.61;nan
66164;BME280;52962;51.088;3.096;2023-04-16T08:44:07;102323.09;;;12.70;nan
66164;BME280;52962;51.088;3.096;2023-04-16T08:46:36;102318.28;;;12.84;nan
66164;BME280;52962;51.088;3.096;2023-04-16T08:49:06;102325.03;;;13.01;nan
66164;BME280;52962;51.088;3.096;2023-04-16T08:51:35;102330.81;;;12.90;nan
66164;BME280;52962;51.088;3.096;2023-04-16T08:54:03;102327.69;;;13.01;nan
66164;BME280;52962;51.088;3.096;2023-04-16T08:56:35;102333.19;;;12.82;nan
66164;BME280;52962;51.088;3.096;2023-04-16T08:59:04;102326.31;;;12.87;nan
66164;BME280;52962;51.088;3.096;2023-04-16T09:01:32;102326.53;;;12.93;nan
66164;BME280;52962;51.088;3.096;2023-04-16T09:04:01;102331.00;;;13.20;nan
66164;BME280;52962;51.088;3.096;2023-04-16T09:06:32;102331.94;;;13.22;nan
66164;BME280;52962;51.088;3.096;2023-04-16T09:09:00;102326.75;;;12.99;nan
66164;BME280;52962;51.088;3.096;2023-04-16T09:11:30;102337.09;;;13.44;nan
66164;BME280;52962;51.088;3.096;2023-04-16T09:14:01;102334.69;;;13.52;nan
66164;BME280;52962;51.088;3.096;2023-04-16T09:16:32;102323.38;;;13.86;nan
66164;BME280;52962;51.088;3.096;2023-04-16T09:19:01;102327.47;;;14.04;nan
66164;BME280;52962;51.088;3.096;2023-04-16T09:21:29;102324.88;;;14.06;nan
66164;BME280;52962;51.088;3.096;2023-04-16T09:23:58;102325.91;;;14.11;nan
66164;BME280;52962;51.088;3.096;2023-04-16T09:26:27;102325.25;;;14.48;nan
66164;BME280;52962;51.088;3.096;2023-04-16T09:28:54;102322.84;;;14.59;nan
66164;BME280;52962;51.088;3.096;2023-04-16T09:31:24;102326.56;;;14.65;nan
66164;BME280;52962;51.088;3.096;2023-04-16T09:34:02;102326.41;;;14.92;nan
66164;BME280;52962;51.088;3.096;2023-04-16T09:36:31;102317.63;;;14.95;nan
66164;BME280;52962;51.088;3.096;2023-04-16T09:39:00;102339.69;;;14.92;nan
66164;BME280;52962;51.088;3.096;2023-04-16T09:41:30;102333.19;;;14.81;nan
66164;BME280;52962;51.088;3.096;2023-04-16T09:44:02;102328.66;;;14.77;nan
66164;BME280;52962;51.088;3.096;2023-04-16T09:46:34;102333.72;;;14.68;nan
66164;BME280;52962;51.088;3.096;2023-04-16T09:49:07;102339.25;;;14.77;nan
66164;BME280;52962;51.088;3.096;2023-04-16T09:51:37;102335.19;;;14.90;nan
66164;BME280;52962;51.088;3.096;2023-04-16T09:54:05;102336.81;;;14.85;nan
66164;BME280;52962;51.088;3.096;2023-04-16T09:56:38;102336.50;;;14.72;nan
66164;BME280;52962;51.088;3.096;2023-04-16T09:59:07;102347.88;;;14.68;nan
66164;BME280;52962;51.088;3.096;2023-04-16T10:01:37;102342.50;;;14.98;nan
66164;BME280;52962;51.088;3.096;2023-04-16T10:04:06;102350.06;;;15.18;nan
66164;BME280;52962;51.088;3.096;2023-04-16T10:06:34;102347.38;;;15.16;nan
66164;BME280;52962;51.088;3.096;2023-04-16T10:09:05;102345.44;;;14.76;nan
66164;BME280;52962;51.088;3.096;2023-04-16T10:11:34;102342.06;;;15.16;nan
66164;BME280;52962;51.088;3.096;2023-04-16T10:14:03;102338.13;;;15.35;nan
66164;BME280;52962;51.088;3.096;2023-04-16T10:16:31;102338.97;;;15.34;nan
66164;BME280;52962;51.088;3.096;2023-04-16T10:19:02;102344.50;;;15.43;nan
66164;BME280;52962;51.088;3.096;2023-04-16T10:21:31;102349.59;;;15.34;nan
66164;BME280;52962;51.088;3.096;2023-04-16T10:24:00;102338.22;;;15.40;nan
66164;BME280;52962;51.088;3.096;2023-04-16T10:26:28;102335.75;;;15.47;nan
66164;BME280;52962;51.088;3.096;2023-04-16T10:28:57;102345.53;;;15.48;nan
66164;BME280;52962;51.088;3.096;2023-04-16T10:31:26;102338.19;;;15.38;nan
66164;BME280;52962;51.088;3.096;2023-04-16T10:33:55;102339.66;;;15.25;nan
66164;BME280;52962;51.088;3.096;2023-04-16T10:36:25;102340.28;;;15.15;nan
66164;BME280;52962;51.088;3.096;2023-04-16T10:38:57;102344.84;;;15.21;nan
66164;BME280;52962;51.088;3.096;2023-04-16T10:41:25;102338.75;;;15.25;nan
66164;BME280;52962;51.088;3.096;2023-04-16T10:44:05;102347.19;;;15.09;nan
66164;BME280;52962;51.088;3.096;2023-04-16T10:46:36;102343.78;;;15.14;nan
66164;BME280;52962;51.088;3.096;2023-04-16T10:49:13;102339.81;;;15.31;nan
66164;BME280;52962;51.088;3.096;2023-04-16T10:51:51;102335.34;;;15.30;nan
66164;BME280;52962;51.088;3.096;2023-04-16T10:54:22;102333.66;;;15.34;nan
66164;BME280;52962;51.088;3.096;2023-04-16T10:56:52;102336.22;;;15.29;nan
66164;BME280;52962;51.088;3.096;2023-04-16T10:59:23;102332.16;;;15.45;nan
66164;BME280;52962;51.088;3.096;2023-04-16T11:01:54;102338.59;;;15.55;nan
66164;BME280;52962;51.088;3.096;2023-04-16T11:04:27;102345.59;;;15.51;nan
66164;BME280;52962;51.088;3.096;2023-04-16T11:07:05;102339.28;;;15.46;nan
66164;BME280;52962;51.088;3.096;2023-04-16T11:09:44;102332.59;;;15.26;nan
66164;BME280;52962;51.088;3.096;2023-04-16T11:12:14;102331.34;;;15.12;nan
66164;BME280;52962;51.088;3.096;2023-04-16T11:14:47;102327.97;;;15.19;nan
66164;BME280;52962;51.088;3.096;2023-04-16T11:17:15;102330.72;;;15.22;nan
66164;BME280;52962;51.088;3.096;2023-04-16T11:19:44;102336.56;;;15.09;nan
66164;BME280;52962;51.088;3.096;2023-04-16T11:22:15;102332.63;;;15.27;nan
66164;BME280;52962;51.088;3.096;2023-04-16T11:24:44;102324.47;;;15.20;nan
66164;BME280;52962;51.088;3.096;2023-04-16T11:27:13;102331.88;;;15.33;nan
66164;BME280;52962;51.088;3.096;2023-04-16T11:29:41;102328.41;;;15.35;nan
66164;BME280;52962;51.088;3.096;2023-04-16T11:32:19;102329.63;;;15.50;nan
66164;BME280;52962;51.088;3.096;2023-04-16T11:34:48;102330.16;;;15.35;nan
66164;BME280;52962;51.088;3.096;2023-04-16T11:37:20;102329.84;;;15.23;nan
66164;BME280;52962;51.088;3.096;2023-04-16T11:39:50;102323.69;;;15.24;nan
66164;BME280;52962;51.088;3.096;2023-04-16T11:42:19;102333.91;;;15.43;nan
66164;BME280;52962;51.088;3.096;2023-04-16T11:44:52;102321.81;;;15.20;nan
66164;BME280;52962;51.088;3.096;2023-04-16T11:47:21;102335.81;;;15.14;nan
66164;BME280;52962;51.088;3.096;2023-04-16T11:49:50;102325.28;;;15.17;nan
66164;BME280;52962;51.088;3.096;2023-04-16T11:52:27;102325.13;;;15.47;nan
66164;BME280;52962;51.088;3.096;2023-04-16T11:54:56;102329.66;;;15.51;nan
66164;BME280;52962;51.088;3.096;2023-04-16T11:57:25;102328.72;;;15.49;nan
66164;BME280;52962;51.088;3.096;2023-04-16T11:59:53;102329.69;;;15.53;nan
66164;BME280;52962;51.088;3.096;2023-04-16T12:02:39;102335.16;;;15.57;nan
66164;BME280;52962;51.088;3.096;2023-04-16T12:05:26;102318.16;;;15.51;nan
66164;BME280;52962;51.088;3.096;2023-04-16T12:07:56;102331.34;;;15.48;nan
66164;BME280;52962;51.088;3.096;2023-04-16T12:10:24;102330.38;;;15.44;nan
66164;BME280;52962;51.088;3.096;2023-04-16T12:12:53;102335.69;;;15.44;nan
66164;BME280;52962;51.088;3.096;2023-04-16T12:15:20;102329.56;;;15.47;nan
66164;BME280;52962;51.088;3.096;2023-04-16T12:17:49;102325.34;;;15.56;nan
66164;BME280;52962;51.088;3.096;2023-04-16T12:20:20;102338.06;;;15.69;nan
66164;BME280;52962;51.088;3.096;2023-04-16T12:22:48;102329.03;;;15.61;nan
66164;BME280;52962;51.088;3.096;2023-04-16T12:25:18;102332.59;;;15.63;nan
66164;BME280;52962;51.088;3.096;2023-04-16T12:27:47;102333.75;;;15.75;nan
66164;BME280;52962;51.088;3.096;2023-04-16T12:30:21;102333.78;;;15.76;nan
66164;BME280;52962;51.088;3.096;2023-04-16T12:32:50;102338.31;;;15.80;nan
66164;BME280;52962;51.088;3.096;2023-04-16T12:35:29;102344.88;;;15.57;nan
66164;BME280;52962;51.088;3.096;2023-04-16T12:37:57;102343.81;;;15.50;nan
66164;BME280;52962;51.088;3.096;2023-04-16T12:40:27;102333.66;;;15.34;nan
66164;BME280;52962;51.088;3.096;2023-04-16T12:42:55;102335.69;;;15.44;nan
66164;BME280;52962;51.088;3.096;2023-04-16T12:45:23;102346.00;;;15.32;nan
66164;BME280;52962;51.088;3.096;2023-04-16T12:47:51;102341.97;;;15.48;nan
66164;BME280;52962;51.088;3.096;2023-04-16T12:50:19;102337.03;;;15.63;nan
66164;BME280;52962;51.088;3.096;2023-04-16T12:52:47;102343.16;;;15.59;nan
66164;BME280;52962;51.088;3.096;2023-04-16T12:55:15;102341.44;;;15.62;nan
66164;BME280;52962;51.088;3.096;2023-04-16T12:57:45;102337.34;;;15.77;nan
66164;BME280;52962;51.088;3.096;2023-04-16T13:00:14;102340.06;;;15.80;nan
66164;BME280;52962;51.088;3.096;2023-04-16T13:02:43;102337.66;;;15.90;nan
66164;BME280;52962;51.088;3.096;2023-04-16T13:05:11;102340.38;;;15.93;nan
66164;BME280;52962;51.088;3.096;2023-04-16T13:07:42;102344.88;;;15.96;nan
66164;BME280;52962;51.088;3.096;2023-04-16T13:10:09;102341.72;;;15.75;nan
66164;BME280;52962;51.088;3.096;2023-04-16T13:12:38;102338.22;;;15.76;nan
66164;BME280;52962;51.088;3.096;2023-04-16T13:15:09;102330.03;;;15.66;nan
66164;BME280;52962;51.088;3.096;2023-04-16T13:17:37;102331.88;;;15.70;nan
66164;BME280;52962;51.088;3.096;2023-04-16T13:20:06;102331.66;;;15.99;nan
66164;BME280;52962;51.088;3.096;2023-04-16T13:22:34;102330.06;;;16.07;nan
66164;BME280;52962;51.088;3.096;2023-04-16T13:25:02;102336.16;;;16.03;nan
66164;BME280;52962;51.088;3.096;2023-04-16T13:27:30;102329.78;;;15.95;nan